Fort Worth, Texas
Current Conditions -  °F | °C
As of 7:53 PM on Wednesday 22 Oct 2014 (Local Time) from KFTW Reporting Station
Clear Clear  
Wind Chill: 75°   Ceiling: Unl
Heat Index: 75°   Visibility: 10mi
Dew Point: 58°   Wind: 6mph
Humidity: 55%   Direction: 130°SE
Pressure: 30.09"   Gusts: NA
Location:  32.75°N, 97.33°W
Report Text: KFTW 230053Z 13005KT 10SM CLR 24/14 A3009 RMK AO2 SLP182 T02390144
Loading
Personal Weather Stations






























Interactive Weather Map
Tropical Storm Tracking
New forecast layout! Learn more

10-Day Weather Forecast

Advertisements
Track Severe Weather on mobile